Time;durP1;ratioP1;P1;durP2;ratioP2;P2;SDS_P1;SDS_P2;PMS_P1;PMS_P2;Temp;Humidity;BMP_temperature;BMP_pressure;BME280_temperature;BME280_humidity;BME280_pressure;Samples;Min_cycle;Max_cycle;Signal;HPM_P1;HPM_P2
2023/01/26 00:01:47;;;;;;;23.90;11.70;;;6.40;99.90;;;;;;4993925;28;20406;-46
2023/01/26 00:04:13;;;;;;;26.15;11.90;;;6.40;99.90;;;;;;4991426;28;20034;-41
2023/01/26 00:06:39;;;;;;;18.65;11.00;;;6.40;99.90;;;;;;4999736;28;20033;-41
2023/01/26 00:09:04;;;;;;;19.95;10.20;;;6.40;99.90;;;;;;4991566;28;20041;-39
2023/01/26 00:11:30;;;;;;;18.35;9.52;;;6.40;99.90;;;;;;4991565;28;20034;-44
2023/01/26 00:13:58;;;;;;;17.88;9.25;;;6.40;99.90;;;;;;5003645;28;20046;-42
2023/01/26 00:16:24;;;;;;;16.60;8.55;;;6.40;99.90;;;;;;5017262;28;20401;-48
2023/01/26 00:18:50;;;;;;;21.83;8.38;;;6.40;99.90;;;;;;4978101;28;20081;-48
2023/01/26 00:21:19;;;;;;;16.58;7.72;;;6.40;99.90;;;;;;4998476;28;20030;-40
2023/01/26 00:23:45;;;;;;;16.70;6.47;;;6.40;99.90;;;;;;4989197;28;20065;-43
2023/01/26 00:26:16;;;;;;;14.80;6.25;;;6.40;99.90;;;;;;4999632;28;20023;-44
2023/01/26 00:28:41;;;;;;;16.10;5.82;;;6.30;99.90;;;;;;4993139;28;20037;-49
2023/01/26 00:31:12;;;;;;;14.00;5.85;;;6.10;99.90;;;;;;4991282;28;20054;-50
2023/01/26 00:33:38;;;;;;;13.82;5.28;;;6.10;99.90;;;;;;4993181;28;20022;-45
2023/01/26 00:36:04;;;;;;;14.45;5.00;;;6.00;99.90;;;;;;4992561;28;20031;-37
2023/01/26 00:38:30;;;;;;;14.27;6.38;;;5.90;99.90;;;;;;5000331;28;20124;-44
2023/01/26 00:40:55;;;;;;;17.58;5.68;;;5.80;99.90;;;;;;5007025;28;20114;-45
2023/01/26 00:43:21;;;;;;;14.98;5.68;;;5.70;99.90;;;;;;4997788;28;20053;-45
2023/01/26 00:45:47;;;;;;;15.95;6.32;;;5.60;99.90;;;;;;5008953;28;20535;-38
2023/01/26 00:48:12;;;;;;;14.75;6.22;;;5.60;99.90;;;;;;5010130;28;20018;-38
2023/01/26 00:50:38;;;;;;;17.50;6.78;;;5.50;99.90;;;;;;5010236;28;20053;-47
2023/01/26 00:53:04;;;;;;;13.57;5.78;;;5.40;99.90;;;;;;5010068;28;20101;-48
2023/01/26 00:55:33;;;;;;;15.43;5.57;;;5.40;99.90;;;;;;5010546;28;20030;-42
2023/01/26 00:57:59;;;;;;;16.52;5.65;;;5.30;99.90;;;;;;5010641;28;20018;-37
2023/01/26 01:00:25;;;;;;;12.80;5.03;;;5.30;99.90;;;;;;5010453;28;20064;-37
2023/01/26 01:02:51;;;;;;;12.85;4.97;;;5.20;99.90;;;;;;5010502;28;20438;-37
2023/01/26 01:05:17;;;;;;;11.30;4.60;;;5.10;99.90;;;;;;5010321;28;20172;-37
2023/01/26 01:07:42;;;;;;;14.55;4.25;;;5.20;99.90;;;;;;5010299;28;20033;-38
2023/01/26 01:10:09;;;;;;;10.95;3.83;;;5.10;99.90;;;;;;5010189;28;20026;-37
2023/01/26 01:12:34;;;;;;;13.95;4.13;;;5.10;99.90;;;;;;5014015;28;20026;-48
2023/01/26 01:15:00;;;;;;;14.57;4.38;;;5.20;99.90;;;;;;5022949;28;20064;-41
2023/01/26 01:17:26;;;;;;;14.50;3.97;;;5.20;99.90;;;;;;5013779;28;20018;-47
2023/01/26 01:19:52;;;;;;;13.45;3.55;;;5.30;99.90;;;;;;5014098;28;20423;-47
2023/01/26 01:22:17;;;;;;;17.15;3.92;;;5.30;99.90;;;;;;5014041;28;20426;-46
2023/01/26 01:24:43;;;;;;;12.18;3.33;;;5.40;99.90;;;;;;5014109;28;20109;-42
2023/01/26 01:27:09;;;;;;;12.52;3.88;;;5.40;99.90;;;;;;5013834;28;20048;-39
2023/01/26 01:29:35;;;;;;;13.15;3.58;;;5.50;99.90;;;;;;5014099;28;20105;-44
2023/01/26 01:32:00;;;;;;;15.05;3.97;;;5.50;99.90;;;;;;5013742;28;20026;-38
2023/01/26 01:34:26;;;;;;;16.45;3.80;;;5.50;99.90;;;;;;5013705;28;20045;-36
2023/01/26 01:36:52;;;;;;;12.00;3.15;;;5.60;99.90;;;;;;5013703;28;20033;-50
2023/01/26 01:39:17;;;;;;;13.38;3.65;;;5.60;99.90;;;;;;5013750;28;20033;-41
2023/01/26 01:41:43;;;;;;;10.95;3.08;;;5.60;99.90;;;;;;4996120;28;20109;-40
2023/01/26 01:44:12;;;;;;;16.27;3.17;;;5.60;99.90;;;;;;5013403;28;20044;-45
2023/01/26 01:46:41;;;;;;;11.25;2.85;;;5.60;99.90;;;;;;5013771;28;20018;-53
2023/01/26 01:49:13;;;;;;;;;;;5.60;99.90;;;;;;5014061;28;20029;-42
2023/01/26 01:51:44;;;;;;;15.30;2.83;;;5.60;99.90;;;;;;5013350;28;19905;-48
2023/01/26 01:54:14;;;;;;;11.95;3.03;;;5.60;99.90;;;;;;5013087;28;20600;-42
2023/01/26 01:56:43;;;;;;;13.88;2.97;;;5.70;99.90;;;;;;4999437;28;20034;-50
2023/01/26 01:59:10;;;;;;;9.55;2.75;;;5.60;99.90;;;;;;5009974;28;20081;-51
2023/01/26 02:01:36;;;;;;;10.27;3.30;;;5.60;99.90;;;;;;5006301;28;20054;-45
2023/01/26 02:04:05;;;;;;;11.00;3.33;;;5.60;99.90;;;;;;4994688;28;20094;-45
2023/01/26 02:06:46;;;;;;;16.90;3.50;;;5.50;99.90;;;;;;4993820;28;20038;-45
2023/01/26 02:10:17;;;;;;;11.20;2.80;;;5.50;99.90;;;;;;4993331;28;20470;-46
2023/01/26 02:12:01;;;;;;;10.60;2.70;;;5.50;99.90;;;;;;5001338;28;20469;-40
2023/01/26 02:14:28;;;;;;;16.55;3.05;;;5.40;99.90;;;;;;4993396;28;20038;-50
2023/01/26 02:16:53;;;;;;;11.43;3.05;;;5.30;99.90;;;;;;4993472;28;20077;-48
2023/01/26 02:19:38;;;;;;;9.18;2.60;;;5.20;99.90;;;;;;4997847;28;20424;-44
2023/01/26 02:22:15;;;;;;;10.10;2.60;;;5.10;99.90;;;;;;4992131;28;20422;-43
2023/01/26 02:24:41;;;;;;;12.30;2.90;;;5.00;99.90;;;;;;5002774;28;20554;-43
2023/01/26 02:27:07;;;;;;;11.15;2.72;;;5.10;99.90;;;;;;5000150;28;20022;-41
2023/01/26 02:29:33;;;;;;;12.30;3.15;;;5.00;99.90;;;;;;5002289;28;20057;-48
2023/01/26 02:31:58;;;;;;;13.70;3.30;;;5.10;99.90;;;;;;5002145;28;20030;-39
2023/01/26 02:34:27;;;;;;;10.18;2.83;;;5.10;99.90;;;;;;4992893;28;20046;-47
2023/01/26 02:37:00;;;;;;;14.02;2.83;;;5.20;99.90;;;;;;4993313;28;20113;-42
2023/01/26 02:39:44;;;;;;;12.93;3.20;;;5.20;99.90;;;;;;4993001;28;20046;-53
2023/01/26 02:44:55;;;;;;;20.23;2.75;;;5.30;99.90;;;;;;4999197;28;20072;-41
2023/01/26 02:47:20;;;;;;;13.70;2.58;;;5.30;99.90;;;;;;4994980;28;20037;-46
2023/01/26 02:49:46;;;;;;;10.63;2.35;;;5.30;99.90;;;;;;5012331;28;20041;-46
2023/01/26 02:52:12;;;;;;;15.10;2.58;;;5.30;99.90;;;;;;5012513;28;20266;-47
2023/01/26 02:57:22;;;;;;;13.57;2.50;;;5.30;99.90;;;;;;5012144;28;20072;-48
2023/01/26 02:59:47;;;;;;;7.03;2.17;;;5.30;99.90;;;;;;5011749;28;20450;-45
2023/01/26 03:02:13;;;;;;;16.30;3.63;;;5.20;99.90;;;;;;5011636;28;20109;-48
2023/01/26 03:04:39;;;;;;;10.38;2.53;;;5.20;99.90;;;;;;5011873;28;20464;-43
2023/01/26 03:07:04;;;;;;;11.02;3.40;;;5.10;99.90;;;;;;5011819;28;20148;-48
2023/01/26 03:09:30;;;;;;;13.25;2.97;;;5.10;99.90;;;;;;5011895;28;20030;-38
2023/01/26 03:11:56;;;;;;;21.17;3.38;;;5.10;99.90;;;;;;5011583;28;20033;-40
2023/01/26 03:14:21;;;;;;;16.75;2.88;;;5.00;99.90;;;;;;5011993;28;20156;-43
2023/01/26 03:16:47;;;;;;;11.77;3.28;;;5.00;99.90;;;;;;5011719;28;20088;-37
2023/01/26 03:27:28;;;;;;;13.13;3.50;;;4.90;99.90;;;;;;5011831;28;20093;-42
2023/01/26 03:29:55;;;;;;;14.07;3.88;;;4.90;99.90;;;;;;4993898;28;20041;-46
2023/01/26 03:32:22;;;;;;;16.50;4.38;;;4.90;99.90;;;;;;5011412;28;20512;-54
2023/01/26 03:34:47;;;;;;;16.23;4.47;;;4.90;99.90;;;;;;5010654;28;20049;-38
2023/01/26 03:37:13;;;;;;;12.90;3.92;;;4.90;99.90;;;;;;5011073;28;20026;-47
2023/01/26 03:56:17;;;;;;;15.05;4.00;;;4.80;99.90;;;;;;5006344;28;20083;-42
2023/01/26 03:58:49;;;;;;;20.88;5.20;;;4.70;99.90;;;;;;5011212;28;20095;-40
2023/01/26 04:01:20;;;;;;;12.52;4.60;;;4.80;99.90;;;;;;5010928;28;20087;-55
2023/01/26 04:09:20;;;;;;;16.40;4.80;;;4.70;99.90;;;;;;5011292;28;20400;-38
2023/01/26 04:11:46;;;;;;;12.80;4.35;;;4.70;99.90;;;;;;5010904;28;20045;-39
2023/01/26 04:22:28;;;;;;;19.55;5.78;;;4.40;99.90;;;;;;5011136;28;20381;-37
2023/01/26 04:24:55;;;;;;;16.52;6.07;;;4.50;99.90;;;;;;5010734;28;20022;-40
2023/01/26 04:27:22;;;;;;;17.98;5.93;;;4.50;99.90;;;;;;4997219;28;20393;-37
2023/01/26 04:29:47;;;;;;;18.02;5.13;;;4.50;99.90;;;;;;5010823;28;20101;-42
2023/01/26 04:32:13;;;;;;;15.75;5.72;;;4.60;99.90;;;;;;5010614;28;20101;-43
2023/01/26 04:34:39;;;;;;;24.40;7.05;;;4.70;99.90;;;;;;5010651;28;20044;-42
2023/01/26 04:37:05;;;;;;;22.27;6.82;;;4.70;99.90;;;;;;5010471;28;20025;-37
2023/01/26 04:39:30;;;;;;;17.70;6.50;;;4.70;99.90;;;;;;5009093;28;20037;-36
2023/01/26 04:41:56;;;;;;;18.65;6.18;;;4.80;99.90;;;;;;5010583;28;20010;-39
2023/01/26 04:44:21;;;;;;;24.63;6.78;;;4.80;99.90;;;;;;5010629;28;20471;-36
2023/01/26 04:46:47;;;;;;;19.85;7.07;;;4.90;99.90;;;;;;5013196;28;20033;-36
2023/01/26 04:49:14;;;;;;;14.65;7.10;;;4.90;99.90;;;;;;5014576;28;20033;-41
2023/01/26 04:51:39;;;;;;;16.27;7.10;;;4.90;99.90;;;;;;5013903;28;20025;-44
2023/01/26 04:54:05;;;;;;;15.43;6.78;;;4.90;99.90;;;;;;5014196;28;20029;-51
2023/01/26 04:56:33;;;;;;;21.65;7.07;;;4.80;99.90;;;;;;5013915;28;20064;-43
2023/01/26 04:59:02;;;;;;;18.33;6.93;;;4.80;99.90;;;;;;5014375;28;20489;-42
2023/01/26 05:01:28;;;;;;;18.77;7.15;;;4.80;99.90;;;;;;5014043;28;20149;-39
2023/01/26 05:03:54;;;;;;;16.27;6.50;;;4.80;99.90;;;;;;5013946;28;20117;-53
2023/01/26 05:06:20;;;;;;;16.83;6.85;;;4.80;99.90;;;;;;5014272;28;20045;-41
2023/01/26 05:08:46;;;;;;;15.80;6.45;;;4.70;99.90;;;;;;5014136;28;20680;-52
2023/01/26 05:11:12;;;;;;;20.65;6.80;;;4.60;99.90;;;;;;5014138;28;20433;-36
2023/01/26 05:13:38;;;;;;;14.10;6.75;;;4.60;99.90;;;;;;5013969;28;20033;-36
2023/01/26 05:16:06;;;;;;;15.80;6.32;;;4.50;99.90;;;;;;5014211;28;20026;-43
2023/01/26 05:18:32;;;;;;;18.08;7.35;;;4.50;99.90;;;;;;5013940;28;20038;-43
2023/01/26 05:20:58;;;;;;;16.70;7.50;;;4.40;99.90;;;;;;5014022;28;20031;-41
2023/01/26 05:23:24;;;;;;;16.25;7.45;;;4.40;99.90;;;;;;5013885;28;20061;-47
2023/01/26 05:25:50;;;;;;;16.52;7.53;;;4.20;99.90;;;;;;5013996;28;20013;-54
2023/01/26 05:28:15;;;;;;;19.27;7.15;;;4.20;99.90;;;;;;5014038;28;20034;-43
2023/01/26 05:30:41;;;;;;;17.75;7.57;;;4.20;99.90;;;;;;5013868;28;20072;-45
2023/01/26 05:33:09;;;;;;;16.58;7.25;;;4.10;99.90;;;;;;5013819;28;20557;-52
2023/01/26 05:35:35;;;;;;;19.75;7.30;;;4.00;99.90;;;;;;5013505;28;20477;-49
2023/01/26 05:38:01;;;;;;;21.05;7.10;;;4.00;99.90;;;;;;5013747;28;20105;-38
2023/01/26 05:40:27;;;;;;;18.65;7.47;;;3.90;99.90;;;;;;5021580;28;20128;-51
2023/01/26 05:42:53;;;;;;;17.10;6.68;;;3.90;99.90;;;;;;5014363;28;20026;-54
2023/01/26 05:45:19;;;;;;;17.50;7.00;;;3.80;99.90;;;;;;5013385;28;20022;-48
2023/01/26 05:47:47;;;;;;;19.52;6.93;;;3.80;99.90;;;;;;5025816;28;20480;-46
2023/01/26 05:50:14;;;;;;;24.30;7.40;;;3.80;99.90;;;;;;5013264;28;20021;-40
2023/01/26 05:52:41;;;;;;;20.33;7.07;;;3.80;99.90;;;;;;5013262;28;20025;-46
2023/01/26 05:55:07;;;;;;;17.85;6.70;;;3.70;99.90;;;;;;5013109;28;20044;-51
2023/01/26 05:57:33;;;;;;;19.55;7.38;;;3.70;99.90;;;;;;5012950;28;20057;-44
2023/01/26 05:59:59;;;;;;;15.10;6.53;;;3.60;99.90;;;;;;4995155;28;20061;-46
2023/01/26 06:02:27;;;;;;;20.08;7.13;;;3.60;99.90;;;;;;5013020;28;20452;-40
2023/01/26 06:04:53;;;;;;;21.40;6.82;;;3.60;99.90;;;;;;5013026;28;20044;-44
2023/01/26 06:07:19;;;;;;;26.92;6.85;;;3.60;99.90;;;;;;5012606;28;20470;-43
2023/01/26 06:09:44;;;;;;;16.52;6.97;;;3.50;99.90;;;;;;5012925;28;20036;-52
2023/01/26 06:12:18;;;;;;;25.05;6.90;;;3.50;99.90;;;;;;5012706;28;20520;-49
2023/01/26 06:14:44;;;;;;;20.85;7.68;;;3.40;99.90;;;;;;5012647;28;20120;-52
2023/01/26 06:17:10;;;;;;;15.77;5.65;;;3.40;99.90;;;;;;5012326;28;20143;-49
2023/01/26 06:19:36;;;;;;;19.80;7.05;;;3.30;99.90;;;;;;5012089;28;20030;-45
2023/01/26 06:22:05;;;;;;;25.20;7.63;;;3.40;99.90;;;;;;5012835;28;20041;-48
2023/01/26 06:24:33;;;;;;;19.27;6.57;;;3.40;99.90;;;;;;5012586;28;20390;-51
2023/01/26 06:26:59;;;;;;;17.35;6.90;;;3.40;99.90;;;;;;5012737;28;20026;-45
2023/01/26 06:29:24;;;;;;;15.07;6.10;;;3.30;99.90;;;;;;5012602;28;20029;-37
2023/01/26 06:31:50;;;;;;;18.25;6.57;;;3.30;99.90;;;;;;5012398;28;20022;-37
2023/01/26 06:34:16;;;;;;;12.93;5.07;;;3.30;99.90;;;;;;5012331;28;20034;-38
2023/01/26 06:36:41;;;;;;;15.07;6.03;;;3.30;99.90;;;;;;5012477;28;20105;-37
2023/01/26 06:39:10;;;;;;;27.02;6.72;;;3.20;99.90;;;;;;5012439;28;20047;-50
2023/01/26 06:41:35;;;;;;;17.55;4.93;;;3.30;99.90;;;;;;5012355;28;20029;-45
2023/01/26 06:44:01;;;;;;;17.13;5.00;;;3.30;99.90;;;;;;5012224;28;20385;-55
2023/01/26 06:46:26;;;;;;;14.32;5.38;;;3.30;99.90;;;;;;5011943;28;20396;-52
2023/01/26 06:48:52;;;;;;;19.98;4.78;;;3.30;99.90;;;;;;5015277;28;20030;-59
2023/01/26 06:51:18;;;;;;;19.55;4.93;;;3.20;99.90;;;;;;5012014;28;20366;-53
2023/01/26 06:53:52;;;;;;;16.67;5.00;;;3.20;99.90;;;;;;5012195;28;20507;-48
2023/01/26 06:56:18;;;;;;;19.08;4.97;;;3.20;99.90;;;;;;5019176;28;20033;-38
2023/01/26 06:58:43;;;;;;;12.93;4.45;;;3.30;99.90;;;;;;5012194;28;20045;-43
2023/01/26 07:01:16;;;;;;;18.30;4.22;;;3.30;99.90;;;;;;5011587;28;20054;-44
2023/01/26 07:03:41;;;;;;;11.13;3.67;;;3.30;99.90;;;;;;5011817;28;20030;-38
2023/01/26 07:06:10;;;;;;;17.77;3.90;;;3.30;99.90;;;;;;5026392;28;20078;-50
2023/01/26 07:08:36;;;;;;;18.23;3.25;;;3.40;99.90;;;;;;5006525;28;20508;-49
2023/01/26 07:11:02;;;;;;;11.63;4.05;;;3.50;99.90;;;;;;4993646;28;20026;-38
2023/01/26 07:13:28;;;;;;;12.75;3.08;;;3.60;99.90;;;;;;5011512;28;20374;-44
2023/01/26 07:16:02;;;;;;;13.68;3.70;;;3.70;99.90;;;;;;4998240;28;20481;-47
2023/01/26 07:18:28;;;;;;;16.23;3.92;;;3.70;99.90;;;;;;5020610;28;20026;-44
2023/01/26 07:20:53;;;;;;;11.73;2.67;;;3.90;99.90;;;;;;5024685;28;20025;-46
2023/01/26 07:23:19;;;;;;;20.80;3.58;;;3.90;99.90;;;;;;5015359;28;20029;-39
2023/01/26 07:25:45;;;;;;;11.02;3.05;;;4.10;99.90;;;;;;5011376;28;20029;-49
2023/01/26 07:28:11;;;;;;;12.98;2.40;;;4.20;99.90;;;;;;5023838;28;20083;-37
2023/01/26 07:30:36;;;;;;;13.68;3.25;;;4.30;99.90;;;;;;5012162;28;20033;-41
2023/01/26 07:33:02;;;;;;;18.38;2.85;;;4.30;99.90;;;;;;5011708;28;20385;-37
2023/01/26 07:35:31;;;;;;;14.57;2.42;;;4.40;99.90;;;;;;5011225;28;20404;-37
2023/01/26 07:37:57;;;;;;;15.95;3.90;;;4.40;99.90;;;;;;4993599;28;20592;-37
2023/01/26 07:40:23;;;;;;;16.25;3.15;;;4.40;99.90;;;;;;5010811;28;20037;-41
2023/01/26 07:42:50;;;;;;;10.13;2.83;;;4.50;99.90;;;;;;5008126;28;20429;-38
2023/01/26 07:45:16;;;;;;;10.57;2.83;;;4.50;99.90;;;;;;4976468;28;20496;-38
2023/01/26 07:47:43;;;;;;;16.83;2.92;;;4.60;99.90;;;;;;5010161;28;20048;-43
2023/01/26 07:50:10;;;;;;;15.23;3.08;;;4.50;99.90;;;;;;5010932;28;20025;-37
2023/01/26 07:52:37;;;;;;;16.08;3.17;;;4.50;99.90;;;;;;5011172;28;20056;-42
2023/01/26 07:55:03;;;;;;;13.27;3.50;;;4.60;99.90;;;;;;5009890;28;20030;-44
2023/01/26 07:57:28;;;;;;;12.88;3.00;;;4.60;99.90;;;;;;5010903;28;20485;-43
2023/01/26 07:59:54;;;;;;;14.07;3.53;;;4.60;99.90;;;;;;5010897;28;20064;-42
2023/01/26 08:02:20;;;;;;;11.15;2.83;;;4.70;99.90;;;;;;5010693;28;20026;-42
2023/01/26 08:04:45;;;;;;;11.82;3.22;;;4.70;99.90;;;;;;5011022;28;20026;-53
2023/01/26 08:07:11;;;;;;;13.60;3.08;;;4.80;99.90;;;;;;5011205;28;20040;-53
2023/01/26 08:09:37;;;;;;;15.90;3.88;;;4.80;99.90;;;;;;5010692;28;20036;-47
2023/01/26 08:12:03;;;;;;;10.93;3.50;;;4.90;99.90;;;;;;5010860;28;20022;-51
2023/01/26 08:14:28;;;;;;;17.50;3.97;;;4.90;99.90;;;;;;5010538;28;20560;-51
2023/01/26 08:16:54;;;;;;;17.02;3.30;;;5.00;99.90;;;;;;4995725;28;20503;-42
2023/01/26 08:19:20;;;;;;;14.88;3.17;;;5.00;99.90;;;;;;5027505;28;20037;-52
2023/01/26 08:21:45;;;;;;;9.63;2.95;;;5.00;99.90;;;;;;5020269;28;20022;-39
2023/01/26 08:24:12;;;;;;;12.52;3.00;;;5.10;99.90;;;;;;5027735;28;20029;-47
2023/01/26 08:26:37;;;;;;;14.63;3.25;;;5.20;99.90;;;;;;5018773;28;20037;-41
2023/01/26 08:29:03;;;;;;;16.95;3.58;;;5.20;99.90;;;;;;5019690;28;20092;-45
2023/01/26 08:31:29;;;;;;;10.73;2.88;;;5.30;99.90;;;;;;5010992;28;20362;-38
2023/01/26 08:33:55;;;;;;;17.95;3.58;;;5.40;99.90;;;;;;4992871;28;20056;-47
2023/01/26 08:36:21;;;;;;;10.90;2.92;;;5.40;99.90;;;;;;5010717;28;20099;-41
2023/01/26 08:38:47;;;;;;;12.82;3.58;;;5.40;99.90;;;;;;5010530;28;20061;-50
2023/01/26 08:41:13;;;;;;;14.30;2.50;;;5.50;99.90;;;;;;5010560;28;20438;-46
2023/01/26 08:43:39;;;;;;;13.25;3.03;;;5.50;99.90;;;;;;5019957;28;20057;-51
2023/01/26 08:46:05;;;;;;;12.85;2.90;;;5.50;99.90;;;;;;5010647;28;20124;-37
2023/01/26 08:48:31;;;;;;;12.50;2.60;;;5.60;99.90;;;;;;5010853;28;20022;-37
2023/01/26 08:51:02;;;;;;;11.07;2.30;;;5.60;99.90;;;;;;5010692;28;20126;-38
2023/01/26 08:53:30;;;;;;;12.05;2.70;;;5.70;99.90;;;;;;5010626;28;20025;-38
2023/01/26 08:55:56;;;;;;;16.70;3.33;;;5.80;99.90;;;;;;5010772;28;20472;-48
2023/01/26 08:58:21;;;;;;;8.98;2.83;;;5.80;99.90;;;;;;5010605;28;20142;-47
2023/01/26 09:00:47;;;;;;;17.50;3.10;;;5.80;99.90;;;;;;5010642;28;20133;-38
2023/01/26 09:03:13;;;;;;;10.90;3.08;;;6.00;99.90;;;;;;5010684;28;20024;-44
2023/01/26 09:05:39;;;;;;;12.23;2.90;;;6.00;99.90;;;;;;5010714;28;20022;-49
2023/01/26 09:08:07;;;;;;;13.43;3.42;;;6.10;99.90;;;;;;5010425;28;20038;-37
2023/01/26 09:10:33;;;;;;;11.30;2.75;;;6.20;99.90;;;;;;5008072;28;20224;-47
2023/01/26 09:12:59;;;;;;;15.75;3.35;;;6.20;99.90;;;;;;4988978;28;20469;-42
2023/01/26 09:15:26;;;;;;;11.05;2.95;;;6.30;99.90;;;;;;4988733;28;20041;-45
2023/01/26 09:17:52;;;;;;;11.15;2.85;;;6.40;99.90;;;;;;4988826;28;20031;-42
2023/01/26 09:20:19;;;;;;;13.52;3.22;;;6.60;99.90;;;;;;5002447;28;20049;-44
2023/01/26 09:22:45;;;;;;;16.13;3.05;;;6.70;99.90;;;;;;4989123;28;20092;-43
2023/01/26 09:25:11;;;;;;;8.85;2.80;;;7.00;99.90;;;;;;5001575;28;20110;-39
2023/01/26 09:27:37;;;;;;;11.88;3.13;;;7.10;99.90;;;;;;4992454;28;20500;-45
2023/01/26 09:30:04;;;;;;;13.80;3.40;;;7.40;99.90;;;;;;4990868;28;20057;-38
2023/01/26 09:32:30;;;;;;;10.52;3.30;;;7.50;99.90;;;;;;4992633;28;20069;-46
2023/01/26 09:34:56;;;;;;;20.63;4.88;;;7.80;99.90;;;;;;4994264;28;20485;-48
2023/01/26 09:37:22;;;;;;;13.88;3.17;;;8.00;99.90;;;;;;5000133;28;20037;-43
2023/01/26 09:39:47;;;;;;;12.63;3.22;;;8.30;99.90;;;;;;5006852;28;20040;-42
2023/01/26 09:42:21;;;;;;;11.40;3.08;;;8.40;99.90;;;;;;5018373;28;20030;-41
2023/01/26 09:45:13;;;;;;;10.50;3.05;;;8.60;99.90;;;;;;5024651;28;20030;-41
2023/01/26 09:48:03;;;;;;;14.07;3.50;;;8.60;99.90;;;;;;5017685;28;20036;-43
2023/01/26 09:50:28;;;;;;;;;;;9.20;99.90;;;;;;5013819;28;20054;-45
2023/01/26 09:53:08;;;;;;;10.88;2.88;;;10.20;99.90;;;;;;5013614;28;19949;-42
2023/01/26 09:55:34;;;;;;;9.90;3.05;;;10.20;99.90;;;;;;5017078;28;20111;-40
2023/01/26 09:58:02;;;;;;;10.98;3.08;;;9.30;99.90;;;;;;5013870;28;20045;-41
2023/01/26 10:00:46;;;;;;;13.02;3.30;;;9.00;99.90;;;;;;5008691;28;20092;-39
2023/01/26 10:03:22;;;;;;;12.60;2.90;;;8.80;99.90;;;;;;5025736;28;20026;-38
2023/01/26 10:06:25;;;;;;;12.10;3.78;;;8.80;99.90;;;;;;5031589;28;20148;-41
2023/01/26 10:08:52;;;;;;;13.25;2.80;;;8.40;99.90;;;;;;5008963;28;20034;-41
2023/01/26 10:11:28;;;;;;;9.73;3.40;;;8.40;99.90;;;;;;5013032;28;20002;-41
2023/01/26 10:14:02;;;;;;;9.73;3.60;;;8.30;99.90;;;;;;5013400;28;20038;-47
2023/01/26 10:16:28;;;;;;;10.55;3.38;;;8.50;99.90;;;;;;5016186;28;20442;-41
2023/01/26 10:19:02;;;;;;;13.77;3.65;;;8.30;99.90;;;;;;5022018;28;20026;-38
2023/01/26 10:21:34;;;;;;;11.02;3.50;;;8.20;99.90;;;;;;5012930;28;20037;-41
2023/01/26 10:24:01;;;;;;;11.55;3.42;;;8.10;99.90;;;;;;5013662;28;20062;-38
2023/01/26 10:26:31;;;;;;;11.98;3.65;;;8.10;99.90;;;;;;5019420;28;20511;-40
2023/01/26 10:28:57;;;;;;;11.85;3.60;;;8.70;99.90;;;;;;5012543;28;20033;-39
2023/01/26 10:31:31;;;;;;;9.55;3.50;;;9.00;99.90;;;;;;5012679;28;20034;-50
2023/01/26 10:33:58;;;;;;;8.98;3.22;;;8.70;99.90;;;;;;5012423;28;20033;-38
2023/01/26 10:36:26;;;;;;;13.57;4.25;;;8.60;99.90;;;;;;5012733;28;20088;-47
2023/01/26 10:38:52;;;;;;;11.68;3.47;;;8.40;99.90;;;;;;5012552;28;20022;-36
2023/01/26 10:41:27;;;;;;;11.77;3.60;;;8.30;99.90;;;;;;4997359;28;20564;-36
2023/01/26 10:44:01;;;;;;;11.18;3.72;;;8.00;99.90;;;;;;5009464;28;20481;-37
2023/01/26 10:46:37;;;;;;;11.13;3.63;;;8.00;99.90;;;;;;5012649;28;20022;-36
2023/01/26 10:49:15;;;;;;;11.90;3.80;;;8.40;99.90;;;;;;5012540;28;20117;-37
2023/01/26 10:52:21;;;;;;;14.27;3.70;;;8.50;99.90;;;;;;5012487;28;20026;-42
2023/01/26 10:54:48;;;;;;;9.35;3.28;;;8.70;99.90;;;;;;5012084;28;20034;-36
2023/01/26 10:57:18;;;;;;;10.07;3.50;;;8.90;99.90;;;;;;5012487;28;20026;-38
2023/01/26 10:59:59;;;;;;;13.27;3.95;;;9.10;99.90;;;;;;5012184;28;20022;-38
2023/01/26 11:02:28;;;;;;;13.70;3.45;;;8.90;99.90;;;;;;5012281;28;20056;-42
2023/01/26 11:05:06;;;;;;;12.30;3.85;;;8.70;99.90;;;;;;5011878;28;20021;-39
2023/01/26 11:07:37;;;;;;;7.38;2.90;;;8.60;99.90;;;;;;5012030;28;20401;-46
2023/01/26 11:10:26;;;;;;;7.93;3.38;;;8.40;99.90;;;;;;5010005;28;20107;-48
2023/01/26 11:13:17;;;;;;;11.38;3.50;;;8.20;99.90;;;;;;4970984;28;20030;-43
2023/01/26 11:15:48;;;;;;;11.05;3.97;;;8.30;99.90;;;;;;5014926;28;20044;-42
2023/01/26 11:18:41;;;;;;;11.15;3.65;;;8.20;99.90;;;;;;5026997;28;20495;-53
2023/01/26 11:21:26;;;;;;;11.48;4.03;;;8.40;99.90;;;;;;5003043;28;20145;-46
2023/01/26 11:24:21;;;;;;;12.02;4.03;;;8.60;99.90;;;;;;5023008;28;20026;-43
2023/01/26 11:27:13;;;;;;;6.78;3.13;;;8.70;99.90;;;;;;5012962;28;20044;-45
2023/01/26 11:30:16;;;;;;;11.57;3.80;;;8.80;99.90;;;;;;5003113;28;20073;-42
2023/01/26 11:33:23;;;;;;;9.70;3.60;;;8.60;99.90;;;;;;5010476;28;20058;-44
2023/01/26 11:35:58;;;;;;;7.82;3.90;;;8.30;99.90;;;;;;5008292;28;20050;-38
2023/01/26 11:38:45;;;;;;;7.70;3.42;;;8.20;99.90;;;;;;5010152;28;20053;-41
2023/01/26 11:41:40;;;;;;;6.50;3.20;;;7.90;99.90;;;;;;5009474;28;20014;-43
2023/01/26 11:44:11;;;;;;;12.82;3.80;;;7.90;99.90;;;;;;5023316;28;20045;-50
2023/01/26 11:46:53;;;;;;;9.80;3.42;;;7.80;99.90;;;;;;5004926;28;20363;-44
2023/01/26 11:49:43;;;;;;;8.20;3.47;;;7.70;99.90;;;;;;4980126;28;20118;-39
2023/01/26 11:52:47;;;;;;;7.60;3.78;;;7.50;99.90;;;;;;5007628;28;20049;-49
2023/01/26 11:55:22;;;;;;;7.78;2.97;;;7.40;99.90;;;;;;4943163;28;20131;-47
2023/01/26 11:58:17;;;;;;;11.63;3.33;;;7.40;99.90;;;;;;5015008;28;20056;-45
2023/01/26 12:00:51;;;;;;;9.88;3.10;;;7.40;99.90;;;;;;5020124;28;20132;-47
2023/01/26 12:03:32;;;;;;;11.63;3.15;;;7.40;99.90;;;;;;5013205;28;20381;-47
2023/01/26 12:06:03;;;;;;;13.88;3.65;;;7.40;99.90;;;;;;5011111;28;20037;-44
2023/01/26 12:08:38;;;;;;;10.90;3.58;;;7.60;99.90;;;;;;5010711;28;20391;-42
2023/01/26 12:11:21;;;;;;;10.90;2.78;;;7.80;99.90;;;;;;5011200;28;20030;-40
2023/01/26 12:13:53;;;;;;;15.10;4.20;;;7.70;99.90;;;;;;5002329;28;20104;-43
2023/01/26 12:16:41;;;;;;;9.52;3.25;;;7.60;99.90;;;;;;5011122;28;20022;-40
2023/01/26 12:19:25;;;;;;;11.88;3.35;;;7.50;99.90;;;;;;4963211;28;20074;-38
2023/01/26 12:21:56;;;;;;;10.65;3.13;;;7.50;99.90;;;;;;5012269;28;20064;-42
2023/01/26 12:24:42;;;;;;;10.05;2.95;;;7.40;99.90;;;;;;5010538;28;20481;-41
2023/01/26 12:27:24;;;;;;;13.30;3.55;;;7.30;99.90;;;;;;5013739;28;20036;-54
2023/01/26 12:30:18;;;;;;;9.13;3.00;;;7.30;99.90;;;;;;5019281;28;20057;-46
2023/01/26 12:32:44;;;;;;;8.07;3.15;;;7.60;99.90;;;;;;5008169;28;20046;-41
2023/01/26 12:35:11;;;;;;;6.90;2.95;;;7.80;99.90;;;;;;5013555;28;20116;-54
2023/01/26 12:37:46;;;;;;;10.65;2.95;;;7.90;99.90;;;;;;5023042;28;20045;-40
2023/01/26 12:40:30;;;;;;;7.20;2.65;;;8.00;99.90;;;;;;5010872;28;20042;-37
2023/01/26 12:43:17;;;;;;;8.35;3.53;;;8.00;99.90;;;;;;5012433;28;20030;-41
2023/01/26 12:45:46;;;;;;;10.68;2.75;;;8.10;99.90;;;;;;5012976;28;20013;-45
2023/01/26 12:48:15;;;;;;;12.27;2.83;;;7.90;99.90;;;;;;5007213;28;20040;-47
2023/01/26 12:50:58;;;;;;;7.25;2.80;;;7.80;99.90;;;;;;4993455;28;20058;-40
2023/01/26 12:53:31;;;;;;;9.60;2.63;;;7.80;99.90;;;;;;4991028;28;20037;-39
2023/01/26 12:56:13;;;;;;;10.63;2.80;;;7.80;99.90;;;;;;5000849;28;20033;-52
2023/01/26 12:58:43;;;;;;;10.27;2.30;;;7.80;99.90;;;;;;5000856;28;20062;-45
2023/01/26 13:01:16;;;;;;;;;;;8.00;99.90;;;;;;4973691;28;20141;-49
2023/01/26 13:03:56;;;;;;;9.60;2.40;;;8.00;99.90;;;;;;4990976;28;19993;-44
2023/01/26 13:06:24;;;;;;;12.45;2.13;;;8.00;99.90;;;;;;4974813;28;20018;-50
2023/01/26 13:08:56;;;;;;;8.30;2.30;;;8.10;99.90;;;;;;4994855;28;20031;-46
2023/01/26 13:11:41;;;;;;;11.07;2.38;;;8.10;99.90;;;;;;4994565;28;20039;-45
2023/01/26 13:14:34;;;;;;;11.10;2.13;;;8.00;99.90;;;;;;4994885;28;20038;-54
2023/01/26 13:17:15;;;;;;;8.57;2.33;;;8.00;99.90;;;;;;4995062;28;20031;-42
2023/01/26 13:19:43;;;;;;;4.90;1.95;;;8.00;99.90;;;;;;4998365;28;20044;-47
2023/01/26 13:22:18;;;;;;;7.00;2.15;;;8.00;99.90;;;;;;5009719;28;20676;-41
2023/01/26 13:24:54;;;;;;;10.40;2.50;;;7.90;99.90;;;;;;5026105;28;20025;-43
2023/01/26 13:27:38;;;;;;;11.60;2.92;;;7.90;99.90;;;;;;5014242;28;20397;-37
2023/01/26 13:30:23;;;;;;;7.55;2.75;;;7.90;99.90;;;;;;5022561;28;20029;-45
2023/01/26 13:32:48;;;;;;;7.05;2.30;;;7.90;99.90;;;;;;5022451;28;20473;-45
2023/01/26 13:35:22;;;;;;;9.85;2.35;;;7.90;99.90;;;;;;5013681;28;20044;-42
2023/01/26 13:38:04;;;;;;;9.38;2.70;;;7.90;99.90;;;;;;5018683;28;20108;-47
2023/01/26 13:40:35;;;;;;;7.78;1.95;;;7.90;99.90;;;;;;5022867;28;20339;-37
2023/01/26 13:43:19;;;;;;;9.40;2.28;;;7.90;99.90;;;;;;5004943;28;20104;-37
2023/01/26 13:45:54;;;;;;;8.57;2.70;;;7.90;99.90;;;;;;5023096;28;20014;-40
2023/01/26 13:48:41;;;;;;;8.73;2.70;;;7.70;99.90;;;;;;5001161;28;20040;-38